createdAt,value
2023-01-12T00:02:23.140Z,1.00
2023-01-12T00:08:18.050Z,1.00
2023-01-12T00:14:11.556Z,1.00
2023-01-12T00:20:06.792Z,1.00
2023-01-12T00:26:01.555Z,1.00
2023-01-12T00:31:56.135Z,1.00
2023-01-12T00:44:20.377Z,1.00
2023-01-12T00:50:13.845Z,1.00
2023-01-12T00:56:08.033Z,1.00
2023-01-12T01:02:02.841Z,1.00
2023-01-12T01:07:56.277Z,1.00
2023-01-12T01:13:50.056Z,1.00
2023-01-12T01:19:44.474Z,1.00
2023-01-12T01:25:38.022Z,1.00
2023-01-12T01:31:31.662Z,1.00
2023-01-12T01:37:26.589Z,1.00
2023-01-12T01:43:21.732Z,1.00
2023-01-12T01:49:33.542Z,1.00
2023-01-12T01:55:30.787Z,1.00
2023-01-12T02:01:24.619Z,1.00
2023-01-12T02:07:18.198Z,1.00
2023-01-12T02:13:30.402Z,1.00
2023-01-12T02:19:46.743Z,1.00
2023-01-12T02:26:04.519Z,1.00
2023-01-12T02:32:07.391Z,1.00
2023-01-12T02:38:09.996Z,1.00
2023-01-12T02:44:04.502Z,1.00
2023-01-12T02:50:02.753Z,1.00
2023-01-12T02:55:56.380Z,1.00
2023-01-12T03:01:52.708Z,1.00
2023-01-12T03:07:50.279Z,1.00
2023-01-12T03:13:48.497Z,1.00
2023-01-12T03:19:44.693Z,1.00
2023-01-12T03:25:40.837Z,1.00
2023-01-12T03:31:34.454Z,1.00
2023-01-12T03:37:32.507Z,1.00
2023-01-12T03:43:32.328Z,1.00
2023-01-12T03:49:30.958Z,1.00
2023-01-12T03:55:26.262Z,1.00
2023-01-12T04:01:21.250Z,1.00
2023-01-12T04:07:14.763Z,1.00
2023-01-12T04:13:08.295Z,1.00
2023-01-12T04:19:03.058Z,1.00
2023-01-12T04:24:56.485Z,1.00
2023-01-12T04:30:49.883Z,1.00
2023-01-12T04:36:44.416Z,1.00
2023-01-12T04:42:56.940Z,1.00
2023-01-12T04:48:50.318Z,1.00
2023-01-12T04:54:44.652Z,1.00
2023-01-12T05:00:38.175Z,1.00
2023-01-12T05:06:31.583Z,1.00
2023-01-12T05:12:26.366Z,1.00
2023-01-12T05:18:20.202Z,1.00
2023-01-12T05:24:13.580Z,1.00
2023-01-12T05:30:10.235Z,1.00
2023-01-12T05:36:06.066Z,1.00
2023-01-12T05:42:16.845Z,1.00
2023-01-12T05:48:12.333Z,1.00
2023-01-12T05:54:06.683Z,1.00
2023-01-12T06:00:00.189Z,1.00
2023-01-12T06:05:58.713Z,1.00
2023-01-12T06:12:09.835Z,1.00
2023-01-12T06:18:02.945Z,1.00
2023-01-12T06:23:57.274Z,1.00
2023-01-12T06:29:50.792Z,4.70
2023-01-12T06:35:50.316Z,18.40
2023-01-12T06:42:02.647Z,31.50
2023-01-12T06:47:57.253Z,43.60
2023-01-12T06:53:50.629Z,52.80
2023-01-12T06:59:45.804Z,56.40
2023-01-12T07:05:39.208Z,55.40
2023-01-12T07:11:32.711Z,56.30
2023-01-12T07:17:27.479Z,56.40
2023-01-12T07:23:21.117Z,57.30
2023-01-12T07:29:14.476Z,58.20
2023-01-12T07:35:09.670Z,56.30
2023-01-12T07:41:03.181Z,52.10
2023-01-12T07:46:56.151Z,51.70
2023-01-12T07:52:51.291Z,53.70
2023-01-12T07:58:44.923Z,55.40
2023-01-12T08:04:38.377Z,51.10
2023-01-12T08:10:33.587Z,45.50
2023-01-12T08:16:30.611Z,37.30
2023-01-12T08:22:28.332Z,29.70
2023-01-12T08:28:29.053Z,16.80
2023-01-12T08:34:22.091Z,8.00
2023-01-12T08:40:16.043Z,10.70
2023-01-12T08:46:10.956Z,18.30
2023-01-12T08:52:04.552Z,16.40
2023-01-12T08:57:58.183Z,14.00
2023-01-12T09:03:52.568Z,20.30
2023-01-12T09:09:46.209Z,29.10
2023-01-12T09:15:39.441Z,39.20
2023-01-12T09:21:34.342Z,53.20
2023-01-12T09:27:27.321Z,69.70
2023-01-12T09:33:24.008Z,82.20
2023-01-12T09:39:27.306Z,91.50
2023-01-12T09:45:41.371Z,97.70
2023-01-12T09:51:38.031Z,99.90
2023-01-12T09:58:07.127Z,99.90
2023-01-12T10:04:02.354Z,99.90
2023-01-12T10:09:55.792Z,99.90
2023-01-12T10:15:55.124Z,99.90
2023-01-12T10:21:48.972Z,99.90
2023-01-12T10:27:48.092Z,99.90
2023-01-12T10:34:03.171Z,99.90
2023-01-12T10:39:56.862Z,99.90
2023-01-12T10:46:06.494Z,99.90
2023-01-12T10:52:03.187Z,99.90
2023-01-12T10:57:56.848Z,99.90
2023-01-12T11:03:51.237Z,99.90
2023-01-12T11:09:46.561Z,99.90
2023-01-12T11:15:40.260Z,99.90
2023-01-12T11:21:38.071Z,99.90
2023-01-12T11:27:38.959Z,99.90
2023-01-12T11:33:40.226Z,99.90
2023-01-12T11:39:35.092Z,99.90
2023-01-12T11:45:40.302Z,99.90
2023-01-12T11:51:33.856Z,99.90
2023-01-12T11:57:46.425Z,99.90
2023-01-12T12:04:01.896Z,99.90
2023-01-12T12:10:09.088Z,99.90
2023-01-12T12:16:18.019Z,99.90
2023-01-12T12:22:25.520Z,99.90
2023-01-12T12:28:43.731Z,99.90
2023-01-12T12:34:54.290Z,99.90
2023-01-12T12:41:17.113Z,99.90
2023-01-12T12:47:34.909Z,99.90
2023-01-12T12:53:31.058Z,99.90
2023-01-12T12:59:53.885Z,99.90
2023-01-12T13:05:48.779Z,99.90
2023-01-12T13:11:52.273Z,99.90
2023-01-12T13:17:50.127Z,99.90
2023-01-12T13:23:49.320Z,99.90
2023-01-12T13:29:44.803Z,99.70
2023-01-12T13:36:12.012Z,80.60
2023-01-12T13:42:31.073Z,52.50
2023-01-12T13:48:26.333Z,38.50
2023-01-12T13:54:19.810Z,32.40
2023-01-12T14:00:22.774Z,27.80
2023-01-12T14:06:24.559Z,17.20
2023-01-12T14:12:46.417Z,8.10
2023-01-12T14:18:46.018Z,1.00
2023-01-12T14:24:39.437Z,1.00
2023-01-12T14:30:35.237Z,1.00
2023-01-12T14:36:35.315Z,1.00
2023-01-12T14:42:46.389Z,1.00
2023-01-12T14:48:42.847Z,5.90
2023-01-12T14:54:37.659Z,39.10
2023-01-12T15:00:33.767Z,72.70
2023-01-12T15:06:27.785Z,91.70
2023-01-12T15:12:44.230Z,99.90
2023-01-12T15:18:55.462Z,99.90
2023-01-12T15:25:06.544Z,99.90
2023-01-12T15:31:01.002Z,99.90
2023-01-12T15:36:55.486Z,99.90
2023-01-12T15:42:48.955Z,99.90
2023-01-12T15:48:43.736Z,94.00
2023-01-12T15:54:37.120Z,91.00
2023-01-12T16:00:30.540Z,89.30
2023-01-12T16:06:30.492Z,85.30
2023-01-12T16:12:23.968Z,81.80
2023-01-12T16:18:18.460Z,74.50
2023-01-12T16:24:14.312Z,69.90
2023-01-12T16:30:10.107Z,67.80
2023-01-12T16:36:03.841Z,67.20
2023-01-12T16:42:03.977Z,68.70
2023-01-12T16:47:57.851Z,77.20
2023-01-12T16:53:53.402Z,88.20
2023-01-12T16:59:51.058Z,92.50
2023-01-12T17:05:45.176Z,97.10
2023-01-12T17:11:41.533Z,99.90
2023-01-12T17:17:37.077Z,99.90
2023-01-12T17:23:30.746Z,99.90
2023-01-12T17:29:25.736Z,99.90
2023-01-12T17:35:20.089Z,99.90
2023-01-12T17:41:35.910Z,99.90
2023-01-12T17:47:29.576Z,99.90
2023-01-12T17:53:24.387Z,99.90
2023-01-12T17:59:19.214Z,99.90
2023-01-12T18:05:12.801Z,99.90
2023-01-12T18:11:09.293Z,99.90
2023-01-12T18:17:02.257Z,99.90
2023-01-12T18:22:55.313Z,99.90
2023-01-12T18:28:50.120Z,99.90
2023-01-12T18:34:43.800Z,99.90
2023-01-12T18:40:37.202Z,99.90
2023-01-12T18:46:46.498Z,99.90
2023-01-12T18:52:57.477Z,99.90
2023-01-12T18:58:52.391Z,99.90
2023-01-12T19:05:08.690Z,99.90
2023-01-12T19:11:09.482Z,99.90
2023-01-12T19:17:20.426Z,99.90
2023-01-12T19:23:32.607Z,99.90
2023-01-12T19:29:26.027Z,99.90
2023-01-12T19:35:19.604Z,99.90
2023-01-12T19:41:33.960Z,99.90
2023-01-12T19:47:27.448Z,99.90
2023-01-12T19:53:22.908Z,99.90
2023-01-12T19:59:17.243Z,99.90
2023-01-12T20:05:13.301Z,99.90
2023-01-12T20:11:07.240Z,99.90
2023-01-12T20:17:02.150Z,99.90
2023-01-12T20:22:56.380Z,99.90
2023-01-12T20:28:49.795Z,99.90
2023-01-12T20:34:45.331Z,99.90
2023-01-12T20:40:40.428Z,99.90
2023-01-12T20:46:33.808Z,99.90
2023-01-12T20:52:28.896Z,99.90
2023-01-12T20:58:22.529Z,99.90
2023-01-12T21:04:15.599Z,99.90
2023-01-12T21:10:12.334Z,99.90
2023-01-12T21:16:08.637Z,99.90
2023-01-12T21:22:02.247Z,99.90
2023-01-12T21:27:57.625Z,99.90
2023-01-12T21:33:50.667Z,99.90
2023-01-12T21:39:44.076Z,99.90
2023-01-12T21:45:39.670Z,99.90
2023-01-12T21:51:33.311Z,99.90
2023-01-12T21:57:26.970Z,99.90
2023-01-12T22:03:25.169Z,99.90
2023-01-12T22:09:18.971Z,99.90
2023-01-12T22:15:12.980Z,99.90
2023-01-12T22:21:10.624Z,99.90
2023-01-12T22:27:03.590Z,99.90
2023-01-12T22:32:57.130Z,99.90
2023-01-12T22:38:51.983Z,99.90
2023-01-12T22:44:45.444Z,98.10
2023-01-12T22:50:38.958Z,95.40
2023-01-12T22:56:33.750Z,93.80
2023-01-12T23:02:44.989Z,93.40
2023-01-12T23:08:38.548Z,92.10
2023-01-12T23:14:34.263Z,91.60
2023-01-12T23:20:27.828Z,91.00
2023-01-12T23:26:23.609Z,90.10
2023-01-12T23:32:18.098Z,84.80
2023-01-12T23:38:16.535Z,80.50
2023-01-12T23:44:11.953Z,77.40
2023-01-12T23:50:07.873Z,74.60
2023-01-12T23:56:06.596Z,78.10
